Latest Weather Observations for Edinburgh

IDS60801

Issued at 11:31 am CDT Sunday 18 February 2018 (issued every 30 minutes, with the page automatically refreshed every 10 minutes)

About weather observations | Map of weather stations | Latest weather observations for SA | Other Formats
Station Details ID: 023083 Name: EDINBURGH RAAF Lat: -34.71 Lon: 138.62 Height: 16.54 m
Data from the previous 72 hours. | See also: Recent months at Edinburgh
Date/Time
CDT
Temp
°C
App
Temp
°C
Dew
Point
°C
Rel
Hum
%
Delta-T
°C
Wind Press
QNH
hPa
Press
MSL
hPa
Rain since
9am
mm
Dir  Spd
km/h
Gust
km/h
Spd
kts
Gust
kts
18/11:30am 26.3 23.0 10.9 38 8.7 SSW 19 24 10 13 1012.1 1012.0 0.0
18/11:00am 26.7 21.4 10.0 35 9.3 SW 28 35 15 19 1012.4 1012.3 0.0
18/10:30am 26.2 23.4 10.0 36 9.0 SW 15 20 8 11 1011.9 1011.8 0.0
18/10:00am 26.2 25.1 10.0 36 9.0 ENE 6 13 3 7 1011.3 1011.2 0.0
18/09:30am 24.5 23.2 10.0 40 8.0 E 7 13 4 7 1011.3 1011.2 0.0
18/09:00am 23.6 21.8 11.0 45 7.0 ENE 11 17 6 9 1011.1 1011.0 0.0
18/08:30am 21.7 20.8 10.8 50 6.0 NE 6 9 3 5 1011.0 1010.9 0.0
18/08:00am 20.4 20.2 11.9 58 4.7 ENE 4 7 2 4 1010.5 1010.4 0.0
18/07:30am 19.0 19.5 11.6 62 4.1 CALM 0 0 0 0 1010.2 1010.1 0.0
18/07:00am 19.0 19.4 11.1 60 4.3 CALM 0 6 0 3 1009.5 1009.4 0.0
18/06:30am 19.8 18.9 10.5 55 5.0 E 6 9 3 5 1009.0 1008.9 0.0
18/06:00am 19.1 18.4 12.1 64 3.9 E 7 15 4 8 1008.3 1008.3 0.0
18/05:30am 18.7 18.1 12.2 66 3.6 SE 7 9 4 5 1008.4 1008.4 0.0
18/05:00am 18.5 18.0 12.7 69 3.2 SSE 7 11 4 6 1008.8 1008.7 0.0
18/04:30am 17.5 17.1 13.0 75 2.5 SSW 7 7 4 4 1009.0 1008.9 0.0
18/04:00am 17.8 17.6 12.9 73 2.7 SSW 6 7 3 4 1009.0 1008.9 0.0
18/03:30am 18.2 17.3 12.6 70 3.1 SSW 9 11 5 6 1009.0 1008.9 0.0
18/03:00am 17.7 17.1 12.2 70 3.0 SSW 7 9 4 5 1009.3 1009.2 0.0
18/02:30am 18.6 18.6 12.4 67 3.5 S 4 6 2 3 1009.4 1009.3 0.0
18/02:00am 18.1 17.0 12.1 68 3.3 NNE 9 11 5 6 1009.7 1009.6 0.0
18/01:30am 18.8 17.5 12.5 67 3.5 NNE 11 13 6 7 1010.2 1010.1 0.0
18/01:00am 19.2 18.0 12.9 67 3.6 NNE 11 13 6 7 1010.6 1010.5 0.0
18/12:30am 19.2 18.6 13.4 69 3.3 N 9 11 5 6 1010.9 1010.8 0.0
18/12:00am 19.8 18.9 13.7 68 3.5 N 11 13 6 7 1011.2 1011.1 0.0
 
Date/Time
CDT
Temp
°C
App
Temp
°C
Dew
Point
°C
Rel
Hum
%
Delta-T
°C
Wind Press
QNH
hPa
Press
MSL
hPa
Rain since
9am
mm
Dir  Spd
km/h
Gust
km/h
Spd
kts
Gust
kts
17/11:30pm 19.4 17.9 13.1 67 3.6 N 13 13 7 7 1011.3 1011.2 0.0
17/11:00pm 19.3 18.8 13.7 70 3.2 N 9 9 5 5 1011.4 1011.3 0.0
17/10:30pm 20.3 21.6 14.0 67 3.6 CALM 0 0 0 0 1011.5 1011.4 0.0
17/10:00pm 21.2 21.4 14.1 64 4.1 SSE 6 7 3 4 1011.5 1011.4 0.0
17/09:30pm 21.2 21.4 14.6 66 3.9 SSW 7 11 4 6 1011.4 1011.3 0.0
17/09:00pm 21.7 20.4 14.8 65 4.1 SSW 15 19 8 10 1011.3 1011.2 0.0
17/08:30pm 22.0 19.9 14.6 63 4.4 SW 19 20 10 11 1010.9 1010.8 0.0
17/08:00pm 23.2 20.6 11.9 49 6.4 SW 17 20 9 11 1010.4 1010.3 0.0
17/07:30pm 24.4 21.1 11.0 43 7.5 SW 19 22 10 12 1010.2 1010.1 0.0
17/07:00pm 25.4 21.7 11.6 42 7.8 SW 22 28 12 15 1009.9 1009.8 0.0
17/06:30pm 25.9 22.7 12.0 42 8.0 SW 20 26 11 14 1009.8 1009.7 0.0
17/06:00pm 27.2 25.2 10.0 34 9.6 SW 11 19 6 10 1010.1 1010.0 0.0
17/05:30pm 27.3 24.3 10.5 35 9.5 SSW 17 20 9 11 1010.3 1010.2 0.0
17/05:00pm 27.3 24.3 10.5 35 9.5 SW 17 22 9 12 1010.5 1010.4 0.0
17/04:30pm 26.7 24.0 11.6 39 8.6 S 17 26 9 14 1010.9 1010.8 0.0
17/04:00pm 27.0 24.1 13.0 42 8.2 SSW 20 28 11 15 1011.2 1011.1 0.0
17/03:30pm 25.5 21.7 12.4 44 7.6 SW 24 30 13 16 1011.5 1011.4 0.0
17/03:00pm 26.8 22.8 11.7 39 8.7 SW 24 33 13 18 1011.5 1011.4 0.0
17/02:30pm 27.7 23.9 12.5 39 8.9 SW 24 35 13 19 1011.6 1011.5 0.0
17/02:00pm 27.8 24.7 12.2 38 9.1 SW 20 30 11 16 1011.7 1011.6 0.0
17/01:30pm 27.9 24.9 11.9 37 9.2 SSW 19 26 10 14 1011.9 1011.8 0.0
17/01:00pm 26.7 25.4 11.2 38 8.8 WSW 9 17 5 9 1012.2 1012.1 0.0
17/12:30pm 26.6 25.1 10.7 37 8.9 S 9 13 5 7 1012.7 1012.6 0.0
17/12:00pm 25.4 24.8 11.6 42 7.8 SE 6 9 3 5 1013.2 1013.1 0.0
17/11:30am 24.4 23.6 11.0 43 7.5 E 6 9 3 5 1013.6 1013.5 0.0
17/11:00am 23.4 22.2 11.5 47 6.7 NE 9 15 5 8 1013.8 1013.7 0.0
17/10:30am 22.5 21.2 11.3 49 6.2 NNE 9 15 5 8 1014.3 1014.2 0.0
17/10:00am 21.0 19.8 11.6 55 5.2 N 9 13 5 7 1014.7 1014.6 0.0
17/09:30am 20.1 19.5 11.8 59 4.6 NNE 6 9 3 5 1014.9 1014.8 0.0
17/09:00am 18.7 17.8 11.3 62 4.0 NE 7 11 4 6 1014.8 1014.7 0.0
17/08:30am 17.3 16.0 11.1 67 3.3 NNE 9 11 5 6 1014.7 1014.6 0.0
17/08:00am 16.1 14.7 10.8 71 2.8 NNE 9 11 5 6 1014.4 1014.3 0.0
17/07:30am 14.6 13.5 10.6 77 2.1 NNE 7 9 4 5 1014.2 1014.1 0.0
17/07:00am 13.6 12.1 10.4 81 1.7 NNE 9 11 5 6 1013.8 1013.7 0.0
17/06:30am 13.6 12.0 10.2 80 1.8 NNE 9 11 5 6 1013.2 1013.1 0.0
17/06:00am 13.5 11.9 10.1 80 1.8 NNE 9 11 5 6 1013.0 1012.9 0.0
17/05:30am 15.1 12.9 10.7 75 2.3 NE 13 17 7 9 1012.9 1012.8 0.0
17/05:00am 13.7 12.4 10.1 79 1.9 NNE 7 9 4 5 1012.9 1012.8 0.0
17/04:30am 14.2 13.1 10.0 76 2.2 N 6 7 3 4 1012.8 1012.7 0.0
17/04:00am 14.2 13.2 10.2 77 2.1 WNW 6 7 3 4 1012.9 1012.8 0.0
17/03:30am 14.2 13.2 10.2 77 2.1 WNW 6 7 3 4 1012.9 1012.8 0.0
17/03:00am 15.7 14.6 9.8 68 3.1 ESE 6 7 3 4 1012.8 1012.7 0.0
17/02:30am 16.5 16.6 11.4 72 2.8 S 2 7 1 4 1013.1 1013.0 0.0
17/02:00am 17.0 16.2 11.1 68 3.2 ESE 6 7 3 4 1013.2 1013.1 0.0
17/01:30am 17.3 16.3 10.9 66 3.4 E 7 9 4 5 1013.8 1013.7 0.0
17/01:00am 17.3 16.6 11.3 68 3.3 ESE 6 7 3 4 1014.2 1014.1 0.0
17/12:30am 17.2 17.1 10.8 66 3.4 ENE 2 6 1 3 1014.3 1014.2 0.0
17/12:00am 17.9 16.9 11.0 64 3.7 SE 7 9 4 5 1014.6 1014.5 0.0
 
Date/Time
CDT
Temp
°C
App
Temp
°C
Dew
Point
°C
Rel
Hum
%
Delta-T
°C
Wind Press
QNH
hPa
Press
MSL
hPa
Rain since
9am
mm
Dir  Spd
km/h
Gust
km/h
Spd
kts
Gust
kts
16/11:30pm 18.4 17.5 11.2 63 3.9 SE 7 9 4 5 1014.9 1014.8 0.0
16/11:00pm 18.7 16.9 11.0 61 4.2 SE 11 15 6 8 1015.0 1014.9 0.0
16/10:30pm 19.5 17.4 11.0 58 4.6 ESE 13 17 7 9 1014.9 1014.8 0.0
16/10:00pm 20.0 19.0 13.5 66 3.7 S 11 15 6 8 1014.6 1014.5 0.0
16/09:30pm 20.0 18.6 13.5 66 3.7 SSW 13 17 7 9 1014.6 1014.5 0.0
16/09:00pm 20.2 18.7 13.2 64 4.0 SSW 13 17 7 9 1014.4 1014.3 0.0
16/08:30pm 20.7 17.9 12.7 60 4.5 SSW 19 24 10 13 1014.2 1014.1 0.0
16/08:00pm 21.3 18.3 12.4 57 5.0 SW 20 24 11 13 1014.3 1014.2 0.0
16/07:30pm 22.1 18.6 12.1 53 5.6 SSW 22 28 12 15 1014.0 1013.9 0.0
16/07:00pm 22.9 18.8 11.6 49 6.3 SW 24 28 13 15 1014.0 1013.9 0.0
16/06:30pm 23.7 20.0 11.4 46 6.9 SW 22 32 12 17 1014.1 1014.0 0.0
16/06:00pm 24.0 19.7 10.7 43 7.4 SW 24 30 13 16 1014.2 1014.1 0.0
16/05:30pm 24.2 19.5 10.8 43 7.5 SW 26 33 14 18 1014.1 1014.0 0.0
16/05:00pm 24.3 19.7 10.9 43 7.5 SW 26 33 14 18 1014.2 1014.1 0.0
16/04:30pm 25.0 20.8 11.2 42 7.8 SW 24 33 13 18 1014.4 1014.3 0.0
16/04:00pm 24.6 20.4 11.2 43 7.5 WSW 24 35 13 19 1014.7 1014.6 0.0
16/03:30pm 24.6 20.0 11.2 43 7.5 SW 26 39 14 21 1014.8 1014.7 0.0
16/03:00pm 23.9 19.8 11.3 45 7.1 SW 24 32 13 17 1015.1 1015.0 0.0
16/02:30pm 24.0 20.0 11.7 46 6.9 WSW 24 35 13 19 1015.5 1015.4 0.0
16/02:00pm 24.1 21.0 12.1 47 6.8 WSW 20 30 11 16 1015.6 1015.5 0.0
16/01:30pm 23.5 20.7 11.5 47 6.7 SW 17 28 9 15 1015.8 1015.7 0.0
16/01:00pm 24.1 21.1 11.8 46 7.0 SW 19 26 10 14 1016.1 1016.0 0.0
16/12:30pm 24.1 21.6 11.1 44 7.3 S 15 28 8 15 1016.2 1016.1 0.0
16/12:00pm 23.5 21.2 10.6 44 7.1 SW 13 22 7 12 1016.6 1016.5 0.0
16/11:30am 23.2 21.1 11.3 47 6.6 WSW 13 19 7 10 1016.7 1016.6 0.0
16/11:00am 22.5 20.6 10.6 47 6.5 SW 11 17 6 9 1016.9 1016.8 0.0
16/10:30am 21.4 19.3 11.1 52 5.7 S 13 19 7 10 1016.9 1016.8 0.0
16/10:00am 21.1 19.0 11.2 53 5.5 SSW 13 20 7 11 1016.9 1016.8 0.0
16/09:30am 20.6 18.9 11.2 55 5.2 SE 11 17 6 9 1016.9 1016.8 0.0
16/09:00am 19.5 18.4 11.8 61 4.3 ESE 9 13 5 7 1016.9 1016.8 0.0
16/08:30am 18.9 18.2 11.9 64 3.9 SE 7 11 4 6 1016.8 1016.7 0.0
16/08:00am 18.0 18.6 11.8 67 3.4 CALM 0 0 0 0 1016.5 1016.4 0.0
16/07:30am 17.3 17.9 12.0 71 2.9 CALM 0 0 0 0 1016.3 1016.2 0.0
16/07:00am 15.8 15.0 11.2 74 2.5 NE 6 9 3 5 1016.0 1015.9 0.0
16/06:30am 15.8 15.0 11.2 74 2.5 NNE 6 7 3 4 1015.8 1015.7 0.0
16/06:00am 16.4 16.0 11.1 71 2.8 ESE 4 7 2 4 1015.6 1015.5 0.0
16/05:30am 16.0 15.2 11.0 72 2.7 NE 6 9 3 5 1015.6 1015.5 0.0
16/05:00am 16.7 16.7 11.2 70 3.0 ESE 2 6 1 3 1015.5 1015.4 0.0
16/04:30am 17.4 16.8 11.7 69 3.1 SSE 6 9 3 5 1015.3 1015.2 0.0
16/04:00am 17.3 16.5 11.6 69 3.1 S 7 11 4 6 1015.2 1015.1 0.0
16/03:30am 17.4 16.1 11.4 68 3.3 SSE 9 11 5 6 1015.2 1015.1 0.0
16/03:00am 17.4 16.5 11.4 68 3.3 SSE 7 11 4 6 1015.4 1015.3 0.0
16/02:30am 17.4 16.7 11.4 68 3.3 S 6 9 3 5 1015.6 1015.5 0.0
16/02:00am 17.8 16.9 11.4 66 3.5 S 7 9 4 5 1015.7 1015.6 0.0
16/01:30am 18.3 17.0 11.4 64 3.8 S 9 11 5 6 1015.6 1015.5 0.0
16/01:00am 18.5 17.2 11.1 62 4.0 S 9 15 5 8 1015.7 1015.6 0.0
16/12:30am 18.9 16.8 11.0 60 4.3 S 13 19 7 10 1015.7 1015.6 0.0
16/12:00am 19.3 18.0 11.1 59 4.5 S 9 13 5 7 1015.6 1015.5 0.0
 
Date/Time
CDT
Temp
°C
App
Temp
°C
Dew
Point
°C
Rel
Hum
%
Delta-T
°C
Wind Press
QNH
hPa
Press
MSL
hPa
Rain since
9am
mm
Dir  Spd
km/h
Gust
km/h
Spd
kts
Gust
kts
15/11:30pm 19.5 17.8 11.3 59 4.5 S 11 15 6 8 1015.5 1015.4 0.0
15/11:00pm 19.7 17.7 11.5 59 4.5 S 13 19 7 10 1015.8 1015.7 0.0
15/10:30pm 19.8 17.4 11.3 58 4.7 SSW 15 20 8 11 1016.0 1015.9 0.0
15/10:00pm 19.9 17.4 12.2 61 4.3 SSW 17 22 9 12 1015.9 1015.8 0.0
15/09:30pm 20.0 17.1 12.3 61 4.3 SW 19 24 10 13 1015.9 1015.8 0.0
15/09:00pm 19.9 17.1 12.7 63 4.1 SW 19 22 10 12 1015.8 1015.7 0.0
15/08:30pm 19.9 17.0 12.2 61 4.3 SW 19 22 10 12 1015.8 1015.7 0.0
15/08:00pm 20.3 16.7 12.0 59 4.6 SSW 22 28 12 15 1015.8 1015.7 0.0
15/07:30pm 20.5 17.2 11.7 57 4.9 SSW 20 26 11 14 1015.7 1015.6 0.0
15/07:00pm 20.7 17.0 11.6 56 5.0 SSW 22 30 12 16 1015.9 1015.8 0.0
15/06:30pm 20.9 17.3 11.8 56 5.1 SW 22 30 12 16 1015.9 1015.8 0.0
15/06:00pm 21.5 18.0 10.3 49 6.1 SSW 19 26 10 14 1015.9 1015.8 0.0
15/05:30pm 21.1 17.4 10.0 49 6.0 SSW 20 24 11 13 1016.1 1016.0 0.0
15/05:00pm 21.7 17.0 10.5 49 6.1 SSW 26 33 14 18 1016.2 1016.1 0.0
15/04:30pm 21.6 18.4 10.1 48 6.2 SW 17 30 9 16 1016.2 1016.1 0.0
15/04:00pm 22.9 19.4 10.3 45 6.9 SW 19 28 10 15 1016.1 1016.0 0.0
15/03:30pm 22.1 17.7 8.9 43 7.0 SW 22 30 12 16 1016.5 1016.4 0.0
15/03:00pm 23.3 19.9 9.0 40 7.7 WSW 17 24 9 13 1016.7 1016.6 0.0
15/02:30pm 22.1 17.7 8.9 43 7.0 SSW 22 32 12 17 1017.0 1016.9 0.0
15/02:00pm 22.2 18.0 8.3 41 7.3 WSW 20 33 11 18 1017.2 1017.1 0.0
15/01:30pm 21.8 18.2 10.0 47 6.4 SSW 19 28 10 15 1017.2 1017.1 0.0
15/01:00pm 21.6 18.3 9.5 46 6.5 WSW 17 26 9 14 1017.4 1017.3 0.0
15/12:30pm 21.1 18.0 10.3 50 5.9 W 17 30 9 16 1017.7 1017.6 0.0
15/12:00pm 21.5 18.7 10.0 48 6.2 WSW 15 22 8 12 1017.9 1017.8 0.0

Other Formats:

Comma delimited format used in spreadsheet applications
http://www.bom.gov.au/fwo/IDS60801/IDS60801.95676.axf

JavaScript Object Notation format (JSON) in row-major order
http://www.bom.gov.au/fwo/IDS60801/IDS60801.95676.json